Time;durP1;ratioP1;P1;durP2;ratioP2;P2;SDS_P1;SDS_P2;PMS_P1;PMS_P2;Temp;Humidity;BMP_temperature;BMP_pressure;BME280_temperature;BME280_humidity;BME280_pressure;Samples;Min_cycle;Max_cycle;Signal;HPM_P1;HPM_P2
2022/10/04 00:02:03;;;;;;;5.47;4.97;;;;;;;;;;5083746;28;20197;-71
2022/10/04 00:04:33;;;;;;;7.00;4.75;;;;;;;;;;5083469;28;20215;-71
2022/10/04 00:07:01;;;;;;;6.68;4.60;;;;;;;;;;5083515;28;20228;-71
2022/10/04 00:09:31;;;;;;;6.32;4.88;;;;;;;;;;5083638;28;20202;-71
2022/10/04 00:11:58;;;;;;;6.22;4.80;;;;;;;;;;5083341;28;20298;-71
2022/10/04 00:14:27;;;;;;;10.23;5.07;;;;;;;;;;5083549;28;20203;-71
2022/10/04 00:16:54;;;;;;;5.43;4.68;;;;;;;;;;5083435;28;20231;-71
2022/10/04 00:19:39;;;;;;;5.53;4.88;;;;;;;;;;5083633;28;20384;-69
2022/10/04 00:22:13;;;;;;;7.63;5.20;;;;;;;;;;5083667;28;20192;-69
2022/10/04 00:24:59;;;;;;;8.80;5.65;;;;;;;;;;5083374;28;20203;-69
2022/10/04 00:27:26;;;;;;;8.80;5.38;;;;;;;;;;5083176;28;20210;-69
2022/10/04 00:30:07;;;;;;;7.25;4.82;;;;;;;;;;5083101;28;20204;-69
2022/10/04 00:32:45;;;;;;;5.80;4.97;;;;;;;;;;5082836;28;20218;-69
2022/10/04 00:35:26;;;;;;;8.65;5.45;;;;;;;;;;5083235;28;20196;-69
2022/10/04 00:37:56;;;;;;;8.23;5.03;;;;;;;;;;5082847;28;20543;-69
2022/10/04 00:40:24;;;;;;;9.80;5.28;;;;;;;;;;5083743;28;20390;-69
2022/10/04 00:42:56;;;;;;;5.85;5.25;;;;;;;;;;5082687;28;20208;-69
2022/10/04 00:45:26;;;;;;;9.55;6.03;;;;;;;;;;5083138;28;20204;-69
2022/10/04 00:48:03;;;;;;;6.20;5.10;;;;;;;;;;5082724;28;20262;-69
2022/10/04 00:50:33;;;;;;;7.97;5.05;;;;;;;;;;5083008;28;20191;-69
2022/10/04 00:53:02;;;;;;;6.15;4.93;;;;;;;;;;5082723;28;20542;-69
2022/10/04 00:55:32;;;;;;;5.28;4.75;;;;;;;;;;5082940;28;20203;-69
2022/10/04 00:58:00;;;;;;;5.32;4.78;;;;;;;;;;5082913;28;20268;-69
2022/10/04 01:00:30;;;;;;;6.03;4.95;;;;;;;;;;5082662;28;20196;-69
2022/10/04 01:02:58;;;;;;;6.30;4.97;;;;;;;;;;5082502;28;20546;-69
2022/10/04 01:05:26;;;;;;;5.53;5.03;;;;;;;;;;5082522;28;20216;-69
2022/10/04 01:07:55;;;;;;;7.40;5.10;;;;;;;;;;5082027;28;20457;-69
2022/10/04 01:10:25;;;;;;;5.00;4.68;;;;;;;;;;5082445;28;20202;-69
2022/10/04 01:12:52;;;;;;;4.85;4.55;;;;;;;;;;5082585;28;20190;-69
2022/10/04 01:15:24;;;;;;;4.97;4.50;;;;;;;;;;5082518;28;20196;-69
2022/10/04 01:18:07;;;;;;;6.05;5.07;;;;;;;;;;5082443;28;20201;-69
2022/10/04 01:20:35;;;;;;;9.18;4.80;;;;;;;;;;5082430;28;20274;-70
2022/10/04 01:23:03;;;;;;;5.43;4.93;;;;;;;;;;5082395;28;20267;-70
2022/10/04 01:25:44;;;;;;;8.13;4.95;;;;;;;;;;5081881;28;20203;-70
2022/10/04 01:28:10;;;;;;;6.78;5.40;;;;;;;;;;5079631;28;20220;-70
2022/10/04 01:30:37;;;;;;;7.13;5.22;;;;;;;;;;5082107;28;20196;-70
2022/10/04 01:33:05;;;;;;;6.93;6.20;;;;;;;;;;5081905;28;20277;-70
2022/10/04 01:35:33;;;;;;;4.85;4.55;;;;;;;;;;5082119;28;20196;-69
2022/10/04 01:37:59;;;;;;;5.40;4.90;;;;;;;;;;5081974;28;20485;-69
2022/10/04 01:40:27;;;;;;;5.55;5.15;;;;;;;;;;5082066;28;20274;-69
2022/10/04 01:42:56;;;;;;;6.30;5.57;;;;;;;;;;5081748;28;20400;-69
2022/10/04 01:45:25;;;;;;;6.47;5.35;;;;;;;;;;5082085;28;20204;-69
2022/10/04 01:47:53;;;;;;;6.18;5.68;;;;;;;;;;5081882;28;20212;-69
2022/10/04 01:50:22;;;;;;;6.03;5.63;;;;;;;;;;5081968;28;20200;-70
2022/10/04 01:52:50;;;;;;;6.32;5.32;;;;;;;;;;5082012;28;20196;-70
2022/10/04 01:55:19;;;;;;;5.93;5.43;;;;;;;;;;5081829;28;20200;-69
2022/10/04 01:57:49;;;;;;;9.43;5.18;;;;;;;;;;5081960;28;20202;-69
2022/10/04 02:00:15;;;;;;;9.35;5.43;;;;;;;;;;5081940;28;20271;-70
2022/10/04 02:02:44;;;;;;;7.25;5.82;;;;;;;;;;5081614;28;20202;-69
2022/10/04 02:05:13;;;;;;;11.65;6.05;;;;;;;;;;5081652;28;20299;-70
2022/10/04 02:07:40;;;;;;;8.55;6.13;;;;;;;;;;5081996;28;20226;-70
2022/10/04 02:10:09;;;;;;;7.00;6.40;;;;;;;;;;5082095;28;20398;-70
2022/10/04 02:12:37;;;;;;;8.23;6.55;;;;;;;;;;5081569;28;20207;-70
2022/10/04 02:15:07;;;;;;;9.50;6.70;;;;;;;;;;5081765;28;20264;-70
2022/10/04 02:17:37;;;;;;;7.03;6.28;;;;;;;;;;5081745;28;20390;-71
2022/10/04 02:20:08;;;;;;;9.52;6.72;;;;;;;;;;5083407;28;20284;-70
2022/10/04 02:22:35;;;;;;;25.90;7.40;;;;;;;;;;5085615;28;20196;-70
2022/10/04 02:25:02;;;;;;;8.75;6.22;;;;;;;;;;5085932;28;20306;-70
2022/10/04 02:27:30;;;;;;;18.45;6.43;;;;;;;;;;5085370;28;20219;-70
2022/10/04 02:30:00;;;;;;;6.40;5.85;;;;;;;;;;5085385;28;20232;-70
2022/10/04 02:35:13;;;;;;;6.45;5.85;;;;;;;;;;5085504;28;20511;-70
2022/10/04 02:37:39;;;;;;;12.82;5.90;;;;;;;;;;5085358;28;20201;-70
2022/10/04 02:40:11;;;;;;;8.40;5.78;;;;;;;;;;5085328;28;20196;-70
2022/10/04 02:42:39;;;;;;;5.50;5.10;;;;;;;;;;5085247;28;20192;-70
2022/10/04 02:45:07;;;;;;;5.95;5.40;;;;;;;;;;5085516;28;20196;-70
2022/10/04 02:47:40;;;;;;;23.02;5.80;;;;;;;;;;5085282;28;20217;-70
2022/10/04 02:50:09;;;;;;;20.92;6.50;;;;;;;;;;5085172;28;20192;-70
2022/10/04 02:52:38;;;;;;;32.72;6.50;;;;;;;;;;5084806;28;20196;-70
2022/10/04 02:55:06;;;;;;;33.88;7.78;;;;;;;;;;5084995;28;20196;-70
2022/10/04 02:57:33;;;;;;;7.30;6.32;;;;;;;;;;5085081;28;20192;-70
2022/10/04 03:00:09;;;;;;;8.70;6.70;;;;;;;;;;5085299;28;20197;-70
2022/10/04 03:02:38;;;;;;;7.55;6.82;;;;;;;;;;5085076;28;20460;-70
2022/10/04 03:05:06;;;;;;;15.30;6.88;;;;;;;;;;5084777;28;20415;-70
2022/10/04 03:07:33;;;;;;;7.68;6.30;;;;;;;;;;5085205;28;20213;-69
2022/10/04 03:09:59;;;;;;;28.83;7.50;;;;;;;;;;5085058;28;20204;-70
2022/10/04 03:12:26;;;;;;;8.05;6.63;;;;;;;;;;5084743;28;20503;-70
2022/10/04 03:14:53;;;;;;;7.03;6.45;;;;;;;;;;5084899;28;20207;-70
2022/10/04 03:17:19;;;;;;;6.68;6.07;;;;;;;;;;5084537;28;20189;-70
2022/10/04 03:19:48;;;;;;;7.25;6.60;;;;;;;;;;5084637;28;20525;-70
2022/10/04 03:22:18;;;;;;;7.22;6.63;;;;;;;;;;5084469;28;20499;-70
2022/10/04 03:24:46;;;;;;;7.00;6.40;;;;;;;;;;5084601;28;20196;-68
2022/10/04 03:27:14;;;;;;;7.60;6.90;;;;;;;;;;5084662;28;20216;-70
2022/10/04 03:29:43;;;;;;;10.25;5.70;;;;;;;;;;5084301;28;20204;-70
2022/10/04 03:32:11;;;;;;;6.28;4.82;;;;;;;;;;5083196;28;20292;-71
2022/10/04 03:34:38;;;;;;;29.20;6.15;;;;;;;;;;5084330;28;20526;-71
2022/10/04 03:37:09;;;;;;;5.88;5.43;;;;;;;;;;5084199;28;20263;-71
2022/10/04 03:39:37;;;;;;;5.70;5.20;;;;;;;;;;5084469;28;20192;-71
2022/10/04 03:42:06;;;;;;;5.97;5.43;;;;;;;;;;5084142;28;20197;-71
2022/10/04 03:44:34;;;;;;;7.57;6.82;;;;;;;;;;5084492;28;20492;-71
2022/10/04 03:47:00;;;;;;;6.40;5.80;;;;;;;;;;5084034;28;20196;-71
2022/10/04 03:49:31;;;;;;;6.15;5.55;;;;;;;;;;5083975;28;20203;-71
2022/10/04 03:51:57;;;;;;;5.63;5.32;;;;;;;;;;5084355;28;20185;-71
2022/10/04 03:54:27;;;;;;;6.10;5.60;;;;;;;;;;5083992;28;20219;-71
2022/10/04 03:56:54;;;;;;;5.75;5.35;;;;;;;;;;5083843;28;20197;-71
2022/10/04 03:59:21;;;;;;;8.05;5.40;;;;;;;;;;5084214;28;20493;-71
2022/10/04 04:01:48;;;;;;;10.40;5.57;;;;;;;;;;5084041;28;20196;-71
2022/10/04 04:04:22;;;;;;;6.57;5.97;;;;;;;;;;5083789;28;20203;-71
2022/10/04 04:06:52;;;;;;;29.63;6.60;;;;;;;;;;5083931;28;20192;-71
2022/10/04 04:09:21;;;;;;;7.20;5.80;;;;;;;;;;5082868;28;20184;-71
2022/10/04 04:11:50;;;;;;;6.93;6.32;;;;;;;;;;5082630;28;20491;-71
2022/10/04 04:14:20;;;;;;;9.82;6.47;;;;;;;;;;5083642;28;20200;-71
2022/10/04 04:16:47;;;;;;;6.70;6.18;;;;;;;;;;5083892;28;20263;-71
2022/10/04 04:19:16;;;;;;;11.02;6.30;;;;;;;;;;5083755;28;20192;-71
2022/10/04 04:21:43;;;;;;;7.15;5.60;;;;;;;;;;5083557;28;20197;-70
2022/10/04 04:24:14;;;;;;;6.18;5.68;;;;;;;;;;5083305;28;20203;-70
2022/10/04 04:26:42;;;;;;;6.13;5.63;;;;;;;;;;5083218;28;20184;-70
2022/10/04 04:29:15;;;;;;;8.73;6.00;;;;;;;;;;5083075;28;20581;-70
2022/10/04 04:31:43;;;;;;;6.25;5.63;;;;;;;;;;5083441;28;20196;-70
2022/10/04 04:34:17;;;;;;;5.43;4.90;;;;;;;;;;5082869;28;20196;-70
2022/10/04 04:36:43;;;;;;;8.63;4.25;;;;;;;;;;5083101;28;20204;-70
2022/10/04 04:41:57;;;;;;;4.82;4.50;;;;;;;;;;5083007;28;20211;-70
2022/10/04 04:44:25;;;;;;;4.22;3.92;;;;;;;;;;5083032;28;20204;-70
2022/10/04 04:46:52;;;;;;;5.28;4.88;;;;;;;;;;5083104;28;20197;-70
2022/10/04 04:49:18;;;;;;;9.80;6.68;;;;;;;;;;5082796;28;20263;-70
2022/10/04 04:51:48;;;;;;;10.20;7.80;;;;;;;;;;5082692;28;20211;-70
2022/10/04 04:54:15;;;;;;;9.52;7.38;;;;;;;;;;5082471;28;20203;-70
2022/10/04 04:56:42;;;;;;;10.18;6.85;;;;;;;;;;5082908;28;20196;-70
2022/10/04 04:59:08;;;;;;;6.90;6.25;;;;;;;;;;5082617;28;20192;-70
2022/10/04 05:01:37;;;;;;;6.00;5.60;;;;;;;;;;5082404;28;20196;-70
2022/10/04 05:04:04;;;;;;;6.13;5.20;;;;;;;;;;5082360;28;20196;-69
2022/10/04 05:06:31;;;;;;;14.10;6.28;;;;;;;;;;5081261;28;20223;-69
2022/10/04 05:08:58;;;;;;;11.85;6.65;;;;;;;;;;5082059;28;20292;-70
2022/10/04 05:11:27;;;;;;;11.30;6.95;;;;;;;;;;5082157;28;20201;-69
2022/10/04 05:13:55;;;;;;;8.85;5.75;;;;;;;;;;5081876;28;20200;-69
2022/10/04 05:16:24;;;;;;;8.27;6.25;;;;;;;;;;5082303;28;20202;-69
2022/10/04 05:18:56;;;;;;;8.73;6.28;;;;;;;;;;5082008;28;20204;-69
2022/10/04 05:21:23;;;;;;;7.82;6.95;;;;;;;;;;5082278;28;20203;-69
2022/10/04 05:23:50;;;;;;;17.88;7.07;;;;;;;;;;5082051;28;20197;-69
2022/10/04 05:26:19;;;;;;;9.32;6.40;;;;;;;;;;5082100;28;20500;-69
2022/10/04 05:28:46;;;;;;;7.25;6.57;;;;;;;;;;5081650;28;20415;-69
2022/10/04 05:31:28;;;;;;;9.40;6.78;;;;;;;;;;5081949;28;20512;-69
2022/10/04 05:33:57;;;;;;;7.20;6.53;;;;;;;;;;5081563;28;20342;-69
2022/10/04 05:36:42;;;;;;;8.52;7.35;;;;;;;;;;5081624;28;20192;-69
2022/10/04 05:39:11;;;;;;;9.15;6.75;;;;;;;;;;5082016;28;20314;-69
2022/10/04 05:41:42;;;;;;;7.22;6.55;;;;;;;;;;5082002;28;20200;-69
2022/10/04 05:44:19;;;;;;;6.50;5.90;;;;;;;;;;5082061;28;20515;-69
2022/10/04 05:46:45;;;;;;;9.05;5.57;;;;;;;;;;5066345;28;20455;-62
2022/10/04 05:49:14;;;;;;;6.13;5.63;;;;;;;;;;5071928;28;20244;-62
2022/10/04 05:51:48;;;;;;;5.50;5.10;;;;;;;;;;5073090;28;20212;-61
2022/10/04 05:54:18;;;;;;;6.00;5.50;;;;;;;;;;5054991;28;20520;-62
2022/10/04 05:57:05;;;;;;;5.43;5.03;;;;;;;;;;5062464;28;20216;-62
2022/10/04 05:59:40;;;;;;;6.25;5.65;;;;;;;;;;5075568;28;20215;-60
2022/10/04 06:02:13;;;;;;;7.45;5.85;;;;;;;;;;5073511;28;20203;-59
2022/10/04 06:04:50;;;;;;;5.95;5.53;;;;;;;;;;5072338;28;20209;-59
2022/10/04 06:07:22;;;;;;;7.93;5.93;;;;;;;;;;5072421;28;20262;-60
2022/10/04 06:09:55;;;;;;;8.70;5.90;;;;;;;;;;5069139;28;20232;-61
2022/10/04 06:12:29;;;;;;;6.60;5.45;;;;;;;;;;5069879;28;20254;-62
2022/10/04 06:15:07;;;;;;;8.15;6.32;;;;;;;;;;5073054;28;20239;-62
2022/10/04 06:17:43;;;;;;;6.80;6.10;;;;;;;;;;5071550;28;20229;-61
2022/10/04 06:20:18;;;;;;;6.53;5.93;;;;;;;;;;5072763;28;20219;-62
2022/10/04 06:22:48;;;;;;;7.13;5.55;;;;;;;;;;5065257;28;20239;-62
2022/10/04 06:25:19;;;;;;;19.67;5.78;;;;;;;;;;5071252;28;20219;-62
2022/10/04 06:27:49;;;;;;;14.20;6.60;;;;;;;;;;5071329;28;20212;-62
2022/10/04 06:30:16;;;;;;;6.70;5.90;;;;;;;;;;5071570;28;20232;-63
2022/10/04 06:32:51;;;;;;;7.15;6.50;;;;;;;;;;5072238;28;20414;-61
2022/10/04 06:35:26;;;;;;;9.52;6.45;;;;;;;;;;5070390;28;20212;-60
2022/10/04 06:38:19;;;;;;;7.40;6.18;;;;;;;;;;5070201;28;20270;-64
2022/10/04 06:40:57;;;;;;;6.78;6.18;;;;;;;;;;5071809;28;20314;-64
2022/10/04 06:43:31;;;;;;;7.72;5.70;;;;;;;;;;5071088;28;20415;-64
2022/10/04 06:46:04;;;;;;;7.10;6.18;;;;;;;;;;5072753;28;20216;-64
2022/10/04 06:48:49;;;;;;;5.38;5.00;;;;;;;;;;5071482;28;20228;-59
2022/10/04 06:51:22;;;;;;;5.90;5.05;;;;;;;;;;5068490;28;20219;-62
2022/10/04 06:53:56;;;;;;;5.47;4.97;;;;;;;;;;5068221;28;20548;-62
2022/10/04 06:56:36;;;;;;;5.25;4.72;;;;;;;;;;5069774;28;20232;-62
2022/10/04 06:59:12;;;;;;;4.95;4.65;;;;;;;;;;5071631;28;20570;-62
2022/10/04 07:01:46;;;;;;;6.18;5.00;;;;;;;;;;5071988;28;20378;-61
2022/10/04 07:04:17;;;;;;;6.03;5.60;;;;;;;;;;5071166;28;20203;-62
2022/10/04 07:06:51;;;;;;;6.40;5.80;;;;;;;;;;5072146;28;20520;-62
2022/10/04 07:09:21;;;;;;;6.90;5.68;;;;;;;;;;5074267;28;20227;-62
2022/10/04 07:11:50;;;;;;;6.00;5.43;;;;;;;;;;5073391;28;20208;-62
2022/10/04 07:14:18;;;;;;;10.10;6.22;;;;;;;;;;5074320;28;20257;-62
2022/10/04 07:16:46;;;;;;;8.10;5.97;;;;;;;;;;5075433;28;20212;-61
2022/10/04 07:19:25;;;;;;;6.75;6.15;;;;;;;;;;5074286;28;20544;-62
2022/10/04 07:21:58;;;;;;;10.60;6.85;;;;;;;;;;5071630;28;20495;-61
2022/10/04 07:24:26;;;;;;;7.75;6.38;;;;;;;;;;5072460;28;20216;-60
2022/10/04 07:26:53;;;;;;;11.50;6.97;;;;;;;;;;5074803;28;20212;-60
2022/10/04 07:29:20;;;;;;;11.27;8.10;;;;;;;;;;5074346;28;20445;-61
2022/10/04 07:31:48;;;;;;;14.63;7.57;;;;;;;;;;5075804;28;20209;-60
2022/10/04 07:34:16;;;;;;;12.35;7.63;;;;;;;;;;5071182;28;20234;-62
2022/10/04 07:36:45;;;;;;;17.98;9.07;;;;;;;;;;5075028;28;20410;-62
2022/10/04 07:39:14;;;;;;;8.23;7.38;;;;;;;;;;5074391;28;20216;-62
2022/10/04 07:41:45;;;;;;;12.05;6.22;;;;;;;;;;5074954;28;20331;-62
2022/10/04 07:44:14;;;;;;;7.90;6.68;;;;;;;;;;5074389;28;20204;-61
2022/10/04 07:46:46;;;;;;;8.13;6.25;;;;;;;;;;5074693;28;20254;-62
2022/10/04 07:49:13;;;;;;;12.73;6.70;;;;;;;;;;5074600;28;20236;-62
2022/10/04 07:51:43;;;;;;;9.55;7.65;;;;;;;;;;5073264;28;20216;-62
2022/10/04 07:54:12;;;;;;;8.45;7.60;;;;;;;;;;5073060;28;20427;-61
2022/10/04 07:56:47;;;;;;;8.52;7.57;;;;;;;;;;5074175;28;20442;-63
2022/10/04 07:59:22;;;;;;;8.57;7.57;;;;;;;;;;5071374;28;20261;-64
2022/10/04 08:01:53;;;;;;;8.55;7.75;;;;;;;;;;5070471;28;20218;-64
2022/10/04 08:04:31;;;;;;;11.25;7.70;;;;;;;;;;5072708;28;20249;-62
2022/10/04 08:06:58;;;;;;;10.50;8.10;;;;;;;;;;5071763;28;20212;-62
2022/10/04 08:09:33;;;;;;;8.80;7.70;;;;;;;;;;5073904;28;20306;-63
2022/10/04 08:12:06;;;;;;;10.55;8.27;;;;;;;;;;5073061;28;20283;-61
2022/10/04 08:14:37;;;;;;;8.43;7.38;;;;;;;;;;5071584;28;20216;-62
2022/10/04 08:17:10;;;;;;;8.52;7.47;;;;;;;;;;5073485;28;20212;-64
2022/10/04 08:19:42;;;;;;;7.45;6.63;;;;;;;;;;5074065;28;20208;-60
2022/10/04 08:22:14;;;;;;;7.25;6.50;;;;;;;;;;5072523;28;20291;-64
2022/10/04 08:24:49;;;;;;;8.93;7.25;;;;;;;;;;5073948;28;20216;-64
2022/10/04 08:27:24;;;;;;;9.07;7.43;;;;;;;;;;5073429;28;20231;-61
2022/10/04 08:30:03;;;;;;;8.80;6.90;;;;;;;;;;5070092;28;20220;-64
2022/10/04 08:32:43;;;;;;;7.60;6.93;;;;;;;;;;5072339;28;20263;-64
2022/10/04 08:35:18;;;;;;;8.18;6.65;;;;;;;;;;5072885;28;20212;-65
2022/10/04 08:37:52;;;;;;;9.48;7.10;;;;;;;;;;5073551;28;20241;-64
2022/10/04 08:40:35;;;;;;;7.43;6.72;;;;;;;;;;5073411;28;20208;-64
2022/10/04 08:43:26;;;;;;;9.30;6.75;;;;;;;;;;5067976;28;20444;-63
2022/10/04 08:46:13;;;;;;;6.47;5.90;;;;;;;;;;5015892;28;20285;-62
2022/10/04 08:49:01;;;;;;;7.47;6.00;;;;;;;;;;5072626;28;20239;-61
2022/10/04 08:51:40;;;;;;;7.00;6.05;;;;;;;;;;5064868;28;20242;-62
2022/10/04 08:54:24;;;;;;;6.25;5.60;;;;;;;;;;5071672;28;20222;-63
2022/10/04 08:57:06;;;;;;;7.50;5.65;;;;;;;;;;5069491;28;20222;-66
2022/10/04 08:59:41;;;;;;;9.10;5.53;;;;;;;;;;5069767;28;20803;-64
2022/10/04 09:02:35;;;;;;;12.43;8.35;;;;;;;;;;5072396;28;20211;-63
2022/10/04 09:05:14;;;;;;;9.57;6.70;;;;;;;;;;5072168;28;20243;-64
2022/10/04 09:07:58;;;;;;;7.78;5.82;;;;;;;;;;5070880;28;20216;-63
2022/10/04 09:10:35;;;;;;;8.43;6.10;;;;;;;;;;5072702;28;20298;-64
2022/10/04 09:13:13;;;;;;;10.85;7.90;;;;;;;;;;5069514;28;20212;-64
2022/10/04 09:15:57;;;;;;;6.38;5.68;;;;;;;;;;5072584;28;20212;-64
2022/10/04 09:18:35;;;;;;;9.52;5.28;;;;;;;;;;5073106;28;20212;-62
2022/10/04 09:21:08;;;;;;;8.18;6.65;;;;;;;;;;5072896;28;20212;-63
2022/10/04 09:23:55;;;;;;;5.88;4.72;;;;;;;;;;5071461;28;20218;-62
2022/10/04 09:26:22;;;;;;;7.47;5.78;;;;;;;;;;5046666;28;20220;-64
2022/10/04 09:29:07;;;;;;;9.70;6.00;;;;;;;;;;5069207;28;20262;-64
2022/10/04 09:31:56;;;;;;;5.32;4.63;;;;;;;;;;5069897;28;20216;-64
2022/10/04 09:34:31;;;;;;;8.82;4.85;;;;;;;;;;5069920;28;20219;-64
2022/10/04 09:37:15;;;;;;;9.82;4.70;;;;;;;;;;5069959;28;20224;-63
2022/10/04 09:39:59;;;;;;;9.77;6.10;;;;;;;;;;5072660;28;20212;-64
2022/10/04 09:42:34;;;;;;;8.95;4.38;;;;;;;;;;5070172;28;20212;-64
2022/10/04 09:45:26;;;;;;;5.45;4.47;;;;;;;;;;5072852;28;20212;-64
2022/10/04 09:47:57;;;;;;;5.72;4.45;;;;;;;;;;5070618;28;20213;-61
2022/10/04 09:50:41;;;;;;;9.02;4.15;;;;;;;;;;5071626;28;20239;-63
2022/10/04 09:53:20;;;;;;;9.27;4.60;;;;;;;;;;5070762;28;20216;-63
2022/10/04 09:56:00;;;;;;;5.50;3.75;;;;;;;;;;5070095;28;20216;-63
2022/10/04 09:58:50;;;;;;;6.85;3.63;;;;;;;;;;5072397;28;20212;-63
2022/10/04 10:01:21;;;;;;;4.07;3.70;;;;;;;;;;5048231;28;20232;-63
2022/10/04 10:04:05;;;;;;;8.10;3.88;;;;;;;;;;5072308;28;20281;-63
2022/10/04 10:06:47;;;;;;;7.22;3.15;;;;;;;;;;5071546;28;20232;-63
2022/10/04 10:09:18;;;;;;;6.13;3.40;;;;;;;;;;5072733;28;20327;-63
2022/10/04 10:14:40;;;;;;;6.40;3.80;;;;;;;;;;5069888;28;20215;-63
2022/10/04 10:17:14;;;;;;;4.30;2.95;;;;;;;;;;5072616;28;20212;-63
2022/10/04 10:20:01;;;;;;;9.75;4.10;;;;;;;;;;5072870;28;20212;-63
2022/10/04 10:22:51;;;;;;;7.63;4.22;;;;;;;;;;5068448;28;20235;-63
2022/10/04 10:25:25;;;;;;;7.97;4.03;;;;;;;;;;5072457;28;20219;-62
2022/10/04 10:27:58;;;;;;;5.47;4.13;;;;;;;;;;5069813;28;20215;-63
2022/10/04 10:30:25;;;;;;;8.85;4.20;;;;;;;;;;5072393;28;20431;-63
2022/10/04 10:33:04;;;;;;;5.45;3.75;;;;;;;;;;5070729;28;20219;-63
2022/10/04 10:35:41;;;;;;;7.05;4.20;;;;;;;;;;5072199;28;20459;-63
2022/10/04 10:38:30;;;;;;;6.68;3.47;;;;;;;;;;5072308;28;20216;-63
2022/10/04 10:41:17;;;;;;;8.50;3.53;;;;;;;;;;5072367;28;20223;-63
2022/10/04 10:43:50;;;;;;;7.60;3.42;;;;;;;;;;5042891;28;20239;-63
2022/10/04 10:46:25;;;;;;;4.55;2.85;;;;;;;;;;5076460;28;20430;-63
2022/10/04 10:49:02;;;;;;;5.40;3.17;;;;;;;;;;5076390;28;20512;-63
2022/10/04 10:51:39;;;;;;;4.00;3.33;;;;;;;;;;5074023;28;20247;-63
2022/10/04 10:54:20;;;;;;;8.88;3.47;;;;;;;;;;5075306;28;20253;-63
2022/10/04 10:56:52;;;;;;;5.65;3.40;;;;;;;;;;5074313;28;20547;-63
2022/10/04 10:59:37;;;;;;;5.93;3.08;;;;;;;;;;5071920;28;20570;-63
2022/10/04 11:02:15;;;;;;;10.13;3.67;;;;;;;;;;5072583;28;20219;-64
2022/10/04 11:04:48;;;;;;;5.97;3.20;;;;;;;;;;5074776;28;20236;-64
2022/10/04 11:07:23;;;;;;;6.00;3.40;;;;;;;;;;5074512;28;20212;-63
2022/10/04 11:10:00;;;;;;;7.15;2.63;;;;;;;;;;5071919;28;20232;-63
2022/10/04 11:12:53;;;;;;;6.15;3.10;;;;;;;;;;5072913;28;20566;-63
2022/10/04 11:15:37;;;;;;;4.68;3.10;;;;;;;;;;5075138;28;20236;-63
2022/10/04 11:18:18;;;;;;;6.35;3.08;;;;;;;;;;5074353;28;20417;-65
2022/10/04 11:20:58;;;;;;;9.70;3.17;;;;;;;;;;5073020;28;20219;-67
2022/10/04 11:23:40;;;;;;;7.68;3.17;;;;;;;;;;5070872;28;20236;-66
2022/10/04 11:26:21;;;;;;;7.97;2.65;;;;;;;;;;5074808;28;20219;-65
2022/10/04 11:28:55;;;;;;;5.82;2.67;;;;;;;;;;5075434;28;20242;-65
2022/10/04 11:31:39;;;;;;;5.88;2.85;;;;;;;;;;5072843;28;20536;-65
2022/10/04 11:34:22;;;;;;;6.18;2.85;;;;;;;;;;5073808;28;20212;-65
2022/10/04 11:36:55;;;;;;;8.82;3.35;;;;;;;;;;5071096;28;20527;-64
2022/10/04 11:39:45;;;;;;;12.90;2.88;;;;;;;;;;5074284;28;20216;-64
2022/10/04 11:42:17;;;;;;;2.80;2.30;;;;;;;;;;5071388;28;20212;-67
2022/10/04 11:45:02;;;;;;;3.55;2.40;;;;;;;;;;5075168;28;20532;-66
2022/10/04 11:47:35;;;;;;;4.18;2.13;;;;;;;;;;5074156;28;20554;-67
2022/10/04 11:50:11;;;;;;;4.90;2.75;;;;;;;;;;5074598;28;20433;-67
2022/10/04 11:52:52;;;;;;;5.18;2.30;;;;;;;;;;5069632;28;20279;-66
2022/10/04 11:55:33;;;;;;;4.38;2.13;;;;;;;;;;5074757;28;20542;-65
2022/10/04 11:58:02;;;;;;;8.70;2.28;;;;;;;;;;5073331;28;20254;-65
2022/10/04 12:00:44;;;;;;;3.80;1.75;;;;;;;;;;5074943;28;20216;-64
2022/10/04 12:03:23;;;;;;;5.70;2.13;;;;;;;;;;5073298;28;20277;-64
2022/10/04 12:05:54;;;;;;;5.47;1.77;;;;;;;;;;5073116;28;20575;-64
2022/10/04 12:08:26;;;;;;;2.75;1.67;;;;;;;;;;5073567;28;20212;-64
2022/10/04 12:11:10;;;;;;;3.15;1.88;;;;;;;;;;5074782;28;20231;-64
2022/10/04 12:13:48;;;;;;;2.95;2.05;;;;;;;;;;5071056;28;20219;-64
2022/10/04 12:16:32;;;;;;;6.13;2.17;;;;;;;;;;5070566;28;20527;-64
2022/10/04 12:19:14;;;;;;;4.40;1.98;;;;;;;;;;5073710;28;20395;-64
2022/10/04 12:21:53;;;;;;;4.50;2.00;;;;;;;;;;5071487;28;20549;-64
2022/10/04 12:24:26;;;;;;;3.40;1.90;;;;;;;;;;5072281;28;20543;-64
2022/10/04 12:27:05;;;;;;;4.22;1.83;;;;;;;;;;5073591;28;20208;-65
2022/10/04 12:29:57;;;;;;;5.75;1.90;;;;;;;;;;5072788;28;20226;-63
2022/10/04 12:32:24;;;;;;;6.10;3.30;;;;;;;;;;5069244;28;20250;-64
2022/10/04 12:34:56;;;;;;;2.97;2.00;;;;;;;;;;5072937;28;20223;-61
2022/10/04 12:37:28;;;;;;;9.02;2.03;;;;;;;;;;5072964;28;20204;-61
2022/10/04 12:40:03;;;;;;;6.45;2.00;;;;;;;;;;5073408;28;20208;-61
2022/10/04 12:42:34;;;;;;;5.72;2.10;;;;;;;;;;5067429;28;20212;-64
2022/10/04 12:45:12;;;;;;;6.55;2.25;;;;;;;;;;5067384;28;20494;-62
2022/10/04 12:47:44;;;;;;;4.22;2.38;;;;;;;;;;5068357;28;20263;-62
2022/10/04 12:50:17;;;;;;;5.57;2.08;;;;;;;;;;5074288;28;20465;-63
2022/10/04 12:52:47;;;;;;;3.38;1.88;;;;;;;;;;5070798;28;20254;-63
2022/10/04 12:55:19;;;;;;;4.05;1.85;;;;;;;;;;5072820;28;20540;-61
2022/10/04 12:57:48;;;;;;;4.00;2.00;;;;;;;;;;5070534;28;20385;-60
2022/10/04 13:00:17;;;;;;;4.45;1.92;;;;;;;;;;5074010;28;20215;-59
2022/10/04 13:03:01;;;;;;;5.03;2.30;;;;;;;;;;5071617;28;20559;-60
2022/10/04 13:05:33;;;;;;;5.35;2.20;;;;;;;;;;5070286;28;20227;-66
2022/10/04 13:08:06;;;;;;;4.72;2.05;;;;;;;;;;5073071;28;20242;-65
2022/10/04 13:10:43;;;;;;;3.28;1.90;;;;;;;;;;5073433;28;20239;-66
2022/10/04 13:13:24;;;;;;;3.53;1.40;;;;;;;;;;5071153;28;20549;-65
2022/10/04 13:15:54;;;;;;;2.72;1.63;;;;;;;;;;5069254;28;20212;-66
2022/10/04 13:18:22;;;;;;;4.53;1.52;;;;;;;;;;5072867;28;20536;-62
2022/10/04 13:20:53;;;;;;;9.40;1.80;;;;;;;;;;5073645;28;20528;-62
2022/10/04 13:23:30;;;;;;;3.22;1.95;;;;;;;;;;5067412;28;20273;-61
2022/10/04 13:26:14;;;;;;;4.32;1.88;;;;;;;;;;5072548;28;20214;-62
2022/10/04 13:28:45;;;;;;;5.07;2.00;;;;;;;;;;5071988;28;20227;-61
2022/10/04 13:31:22;;;;;;;4.88;1.77;;;;;;;;;;5071821;28;20224;-62
2022/10/04 13:33:54;;;;;;;4.13;1.90;;;;;;;;;;5072023;28;20239;-62
2022/10/04 13:36:28;;;;;;;5.97;3.67;;;;;;;;;;5072388;28;20305;-64
2022/10/04 13:38:59;;;;;;;3.42;2.22;;;;;;;;;;5072422;28;20212;-62
2022/10/04 13:41:31;;;;;;;4.13;2.00;;;;;;;;;;5069916;28;20399;-64
2022/10/04 13:44:14;;;;;;;2.75;1.33;;;;;;;;;;5071135;28;20211;-65
2022/10/04 13:46:45;;;;;;;3.97;1.98;;;;;;;;;;5071774;28;20462;-64
2022/10/04 13:49:28;;;;;;;2.67;1.52;;;;;;;;;;5072471;28;20219;-64
2022/10/04 13:57:53;;;;;;;8.13;1.63;;;;;;;;;;5068072;28;20254;-65
2022/10/04 14:00:33;;;;;;;3.22;1.50;;;;;;;;;;5072048;28;20239;-63
2022/10/04 14:03:09;;;;;;;2.92;1.55;;;;;;;;;;5071222;28;20566;-64
2022/10/04 14:05:57;;;;;;;3.72;1.88;;;;;;;;;;5072448;28;20231;-65
2022/10/04 14:08:41;;;;;;;3.00;1.42;;;;;;;;;;5069774;28;20220;-65
2022/10/04 14:11:16;;;;;;;4.32;1.48;;;;;;;;;;5072585;28;20586;-65
2022/10/04 14:14:01;;;;;;;2.92;1.88;;;;;;;;;;5070177;28;20250;-65
2022/10/04 14:16:41;;;;;;;4.47;1.38;;;;;;;;;;5058529;28;20531;-65
2022/10/04 14:19:32;;;;;;;4.35;2.00;;;;;;;;;;5078432;28;20227;-65
2022/10/04 14:22:20;;;;;;;6.32;1.75;;;;;;;;;;5077021;28;20211;-66
2022/10/04 14:25:08;;;;;;;3.67;1.67;;;;;;;;;;5074692;28;20212;-66
2022/10/04 14:27:46;;;;;;;4.25;1.60;;;;;;;;;;5073929;28;20242;-65
2022/10/04 14:30:19;;;;;;;4.57;1.70;;;;;;;;;;5077022;28;20219;-66
2022/10/04 14:33:09;;;;;;;3.70;1.67;;;;;;;;;;5074828;28;20214;-61
2022/10/04 14:35:42;;;;;;;1.85;1.73;;;;;;;;;;5063127;28;20229;-61
2022/10/04 14:38:23;;;;;;;3.63;1.73;;;;;;;;;;5071701;28;20492;-62
2022/10/04 14:40:57;;;;;;;3.28;1.30;;;;;;;;;;5065412;28;20204;-61
2022/10/04 14:43:38;;;;;;;3.40;1.70;;;;;;;;;;5067756;28;20222;-64
2022/10/04 14:46:13;;;;;;;2.92;1.60;;;;;;;;;;5044966;28;20499;-63
2022/10/04 14:48:47;;;;;;;3.13;1.80;;;;;;;;;;5079587;28;20196;-64
2022/10/04 14:51:19;;;;;;;2.92;1.42;;;;;;;;;;5080159;28;20238;-66
2022/10/04 14:53:49;;;;;;;3.58;1.70;;;;;;;;;;5081048;28;20208;-65
2022/10/04 14:56:31;;;;;;;2.17;1.92;;;;;;;;;;5082474;28;20531;-64
2022/10/04 14:59:03;;;;;;;5.50;2.00;;;;;;;;;;5069438;28;20243;-64
2022/10/04 15:01:31;;;;;;;3.17;1.75;;;;;;;;;;5082641;28;20200;-64
2022/10/04 15:04:18;;;;;;;3.33;1.40;;;;;;;;;;5081959;28;20250;-64
2022/10/04 15:06:48;;;;;;;1.65;1.50;;;;;;;;;;5082401;28;20231;-65
2022/10/04 15:09:32;;;;;;;1.10;1.00;;;;;;;;;;5082061;28;20227;-65
2022/10/04 15:12:01;;;;;;;2.70;1.50;;;;;;;;;;5082161;28;20220;-64
2022/10/04 15:14:33;;;;;;;2.85;1.40;;;;;;;;;;5081628;28;20211;-63
2022/10/04 15:17:02;;;;;;;1.77;1.33;;;;;;;;;;5082105;28;20200;-64
2022/10/04 15:19:30;;;;;;;1.92;1.35;;;;;;;;;;5082053;28;20213;-63
2022/10/04 15:22:02;;;;;;;1.65;1.52;;;;;;;;;;5082142;28;20508;-63
2022/10/04 15:24:29;;;;;;;4.40;1.23;;;;;;;;;;5081670;28;20208;-64
2022/10/04 15:27:16;;;;;;;2.88;1.63;;;;;;;;;;5081020;28;20406;-63
2022/10/04 15:29:46;;;;;;;3.33;1.50;;;;;;;;;;5082141;28;20454;-64
2022/10/04 15:32:24;;;;;;;6.60;1.45;;;;;;;;;;5082048;28;20224;-64
2022/10/04 15:34:59;;;;;;;2.63;1.52;;;;;;;;;;5082267;28;20204;-64